Time;durP1;ratioP1;P1;durP2;ratioP2;P2;SDS_P1;SDS_P2;PMS_P1;PMS_P2;Temp;Humidity;BMP_temperature;BMP_pressure;BME280_temperature;BME280_humidity;BME280_pressure;Samples;Min_cycle;Max_cycle;Signal;HPM_P1;HPM_P2
2024/01/03 00:02:22;;;;;;;3.43;0.83;;;;;;;9.58;98.06;148547.06;4982476;28;20601;-56
2024/01/03 00:04:48;;;;;;;2.27;0.70;;;;;;;9.62;98.59;148555.81;4980862;28;20221;-55
2024/01/03 00:07:15;;;;;;;3.97;0.80;;;;;;;9.56;98.97;148542.09;4984363;28;20720;-55
2024/01/03 00:09:42;;;;;;;3.60;1.00;;;;;;;9.57;98.37;148543.34;4980921;28;20229;-56
2024/01/03 00:12:23;;;;;;;1.63;0.60;;;;;;;9.58;98.44;148545.84;4979789;28;20246;-56
2024/01/03 00:14:50;;;;;;;2.70;0.60;;;;;;;9.59;97.69;148549.56;4979353;28;20625;-57
2024/01/03 00:17:16;;;;;;;4.77;0.67;;;;;;;9.68;97.17;148569.47;4983842;28;20232;-56
2024/01/03 00:19:44;;;;;;;4.03;0.87;;;;;;;9.68;96.22;148569.47;4984112;28;20692;-56
2024/01/03 00:22:13;;;;;;;4.27;1.13;;;;;;;9.66;96.02;148565.75;4981896;28;20718;-56
2024/01/03 00:24:46;;;;;;;3.87;1.00;;;;;;;9.58;98.32;148547.06;4978815;28;20230;-56
2024/01/03 00:27:13;;;;;;;3.27;0.70;;;;;;;9.48;99.83;148520.94;4980014;28;20598;-56
2024/01/03 00:29:52;;;;;;;2.50;0.60;;;;;;;9.53;97.79;148534.66;4980641;28;20215;-55
2024/01/03 00:32:21;;;;;;;3.57;0.67;;;;;;;9.49;97.50;148523.44;4963651;28;20246;-56
2024/01/03 00:34:48;;;;;;;2.20;0.60;;;;;;;9.48;100.00;148520.94;4979088;28;20218;-56
2024/01/03 00:37:23;;;;;;;2.37;0.60;;;;;;;9.46;100.00;148517.22;4982858;28;20263;-56
2024/01/03 00:39:50;;;;;;;2.77;0.70;;;;;;;9.49;100.00;148523.44;4964129;28;20316;-54
2024/01/03 00:42:17;;;;;;;1.50;0.70;;;;;;;9.45;100.00;148515.97;4968879;28;20253;-57
2024/01/03 00:44:44;;;;;;;4.27;0.97;;;;;;;9.44;100.00;148512.25;4970736;28;20230;-59
2024/01/03 00:47:13;;;;;;;2.03;0.70;;;;;;;9.38;100.00;148497.31;4981786;28;20853;-55
2024/01/03 00:49:39;;;;;;;5.87;0.70;;;;;;;9.41;100.00;148506.00;4981849;28;20217;-54
2024/01/03 00:52:06;;;;;;;2.20;0.77;;;;;;;9.38;100.00;148497.31;4977855;28;20241;-56
2024/01/03 00:54:34;;;;;;;2.97;0.60;;;;;;;9.43;100.00;148511.00;4966176;28;20229;-55
2024/01/03 00:57:01;;;;;;;2.40;0.97;;;;;;;9.43;100.00;148511.00;4963529;28;20252;-57
2024/01/03 00:59:28;;;;;;;2.20;0.70;;;;;;;9.40;100.00;148502.31;4966524;28;20321;-56
2024/01/03 01:01:57;;;;;;;1.23;0.50;;;;;;;9.45;100.00;148514.75;4970909;28;20236;-56
2024/01/03 01:04:25;;;;;;;3.60;1.23;;;;;;;9.45;100.00;148515.97;4979112;28;20231;-54
2024/01/03 01:06:52;;;;;;;3.63;0.70;;;;;;;9.46;100.00;148517.22;4979260;28;20226;-56
2024/01/03 01:09:19;;;;;;;1.30;0.70;;;;;;;9.45;100.00;148515.97;4981491;28;20577;-57
2024/01/03 01:11:45;;;;;;;2.67;0.80;;;;;;;9.41;100.00;148504.78;4977479;28;20647;-56
2024/01/03 01:14:12;;;;;;;3.90;1.03;;;;;;;9.32;100.00;148482.38;4976239;28;20232;-55
2024/01/03 01:16:39;;;;;;;1.70;0.60;;;;;;;9.19;100.00;148452.53;4982576;28;20222;-57
2024/01/03 01:19:07;;;;;;;1.50;0.67;;;;;;;9.14;100.00;148441.28;4981321;28;20237;-57
2024/01/03 01:21:35;;;;;;;1.03;0.70;;;;;;;9.14;100.00;148441.28;4964772;28;20280;-56
2024/01/03 01:24:02;;;;;;;1.80;0.60;;;;;;;9.07;100.00;148422.66;4959824;28;20233;-56
2024/01/03 01:26:28;;;;;;;3.43;1.60;;;;;;;8.98;100.00;148402.75;4983721;28;20229;-57
2024/01/03 01:28:55;;;;;;;0.70;0.30;;;;;;;9.12;100.00;148435.09;4980262;28;20694;-57
2024/01/03 01:31:22;;;;;;;1.10;0.50;;;;;;;9.00;100.00;148407.72;4985025;28;20237;-57
2024/01/03 01:33:48;;;;;;;0.90;0.30;;;;;;;8.94;100.00;148392.78;4966169;28;20227;-57
2024/01/03 01:36:15;;;;;;;2.03;0.40;;;;;;;8.90;100.00;148381.63;4985358;28;20217;-57
2024/01/03 01:38:44;;;;;;;3.07;0.50;;;;;;;8.91;100.00;148384.09;4985291;28;20589;-55
2024/01/03 01:41:10;;;;;;;2.23;0.50;;;;;;;8.94;100.00;148392.78;4982732;28;20249;-56
2024/01/03 01:43:37;;;;;;;0.63;0.40;;;;;;;8.93;100.00;148390.31;4985300;28;21078;-57
2024/01/03 01:46:04;;;;;;;2.17;0.43;;;;;;;8.91;100.00;148385.31;4965765;28;20292;-57
2024/01/03 01:48:31;;;;;;;3.00;0.50;;;;;;;8.90;100.00;148381.63;4981215;28;20234;-56
2024/01/03 01:50:58;;;;;;;1.70;0.50;;;;;;;8.94;100.00;148391.56;4982072;28;20226;-57
2024/01/03 01:53:24;;;;;;;0.73;0.53;;;;;;;8.87;100.00;148375.38;4979468;28;20232;-56
2024/01/03 01:55:53;;;;;;;2.43;0.60;;;;;;;8.88;100.00;148377.88;4963408;28;20221;-55
2024/01/03 01:58:22;;;;;;;1.53;0.50;;;;;;;8.94;100.00;148392.78;4975813;28;20228;-56
2024/01/03 02:00:49;;;;;;;3.13;1.10;;;;;;;8.99;100.00;148404.00;4982303;28;20665;-57
2024/01/03 02:03:17;;;;;;;1.60;0.50;;;;;;;9.09;100.00;148427.63;4978503;28;20229;-57
2024/01/03 02:05:45;;;;;;;4.27;0.80;;;;;;;9.17;100.00;148447.53;4974868;28;20689;-57
2024/01/03 02:08:12;;;;;;;1.37;0.87;;;;;;;9.18;100.00;148450.03;4985941;28;20273;-58
2024/01/03 02:10:38;;;;;;;2.03;0.80;;;;;;;9.13;100.00;148438.81;4986145;28;20230;-57
2024/01/03 02:13:06;;;;;;;4.30;0.97;;;;;;;9.04;100.00;148415.19;4965804;28;20307;-57
2024/01/03 02:15:33;;;;;;;3.87;1.00;;;;;;;8.91;100.00;148385.31;4985824;28;20248;-57
2024/01/03 02:18:00;;;;;;;2.60;0.80;;;;;;;8.87;100.00;148375.38;4965366;28;20217;-57
2024/01/03 02:20:31;;;;;;;2.03;0.70;;;;;;;8.90;100.00;148382.84;4968303;28;20233;-57
2024/01/03 02:23:00;;;;;;;3.23;0.80;;;;;;;8.92;100.00;148387.81;4963486;28;20232;-57
2024/01/03 02:25:26;;;;;;;2.63;0.93;;;;;;;8.90;100.00;148382.84;4979519;28;20233;-57
2024/01/03 02:27:53;;;;;;;1.77;0.60;;;;;;;8.88;100.00;148377.88;4978737;28;20732;-58
2024/01/03 02:30:19;;;;;;;2.60;0.73;;;;;;;8.91;100.00;148385.31;4985655;28;20229;-58
2024/01/03 02:32:46;;;;;;;2.60;0.80;;;;;;;8.95;100.00;148395.28;4981849;28;20217;-57
2024/01/03 02:35:13;;;;;;;2.67;0.90;;;;;;;8.97;100.00;148400.25;4985402;28;20230;-58
2024/01/03 02:37:39;;;;;;;1.80;0.60;;;;;;;8.98;100.00;148402.75;4984399;28;20576;-57
2024/01/03 02:40:09;;;;;;;2.37;1.00;;;;;;;8.93;100.00;148389.09;4982356;28;20229;-58
2024/01/03 02:42:35;;;;;;;1.93;0.70;;;;;;;9.01;100.00;148410.22;4984097;28;20223;-54
2024/01/03 02:45:02;;;;;;;1.70;0.70;;;;;;;9.09;100.00;148427.63;4979492;28;20273;-57
2024/01/03 02:47:28;;;;;;;2.00;0.73;;;;;;;9.07;100.00;148422.66;4985828;28;20242;-57
2024/01/03 02:49:58;;;;;;;0.93;0.60;;;;;;;9.12;100.00;148435.09;4980809;28;20217;-57
2024/01/03 02:52:25;;;;;;;4.07;0.83;;;;;;;9.09;100.00;148427.63;4983515;28;20284;-57
2024/01/03 02:54:52;;;;;;;3.77;1.00;;;;;;;9.08;100.00;148425.16;4978253;28;20226;-57
2024/01/03 02:57:20;;;;;;;2.57;0.80;;;;;;;8.98;100.00;148402.75;4984371;28;20233;-57
2024/01/03 02:59:46;;;;;;;2.93;0.70;;;;;;;8.95;100.00;148394.06;4983220;28;20221;-57
2024/01/03 03:02:13;;;;;;;3.90;0.77;;;;;;;8.88;100.00;148377.88;4983039;28;20236;-56
2024/01/03 03:04:39;;;;;;;1.67;0.83;;;;;;;8.95;100.00;148395.28;4982533;28;20639;-56
2024/01/03 03:07:06;;;;;;;4.57;0.90;;;;;;;9.04;100.00;148416.41;4979957;28;20244;-57
2024/01/03 03:09:33;;;;;;;1.57;0.67;;;;;;;9.14;100.00;148440.06;4985055;28;20236;-56
2024/01/03 03:11:59;;;;;;;2.80;0.73;;;;;;;9.23;100.00;148462.47;4982995;28;20280;-56
2024/01/03 03:14:27;;;;;;;4.97;0.83;;;;;;;9.32;100.00;148483.59;4984883;28;20233;-54
2024/01/03 03:16:54;;;;;;;1.43;0.73;;;;;;;9.30;100.00;148479.91;4980389;28;20224;-56
2024/01/03 03:19:20;;;;;;;2.03;0.90;;;;;;;9.32;100.00;148482.38;4983704;28;20226;-57
2024/01/03 03:21:47;;;;;;;2.70;0.60;;;;;;;9.35;100.00;148491.06;4982451;28;20229;-57
2024/01/03 03:24:13;;;;;;;5.50;0.70;;;;;;;9.34;100.00;148488.59;4985286;28;20241;-56
2024/01/03 03:26:40;;;;;;;5.50;0.70;;;;;;;9.36;99.73;148492.34;4985516;28;20225;-57
2024/01/03 03:29:07;;;;;;;4.17;0.77;;;;;;;9.36;100.00;148493.56;4982214;28;20230;-55
2024/01/03 03:31:35;;;;;;;3.10;0.60;;;;;;;9.36;100.00;148492.34;4986111;28;20237;-57
2024/01/03 03:34:01;;;;;;;3.10;0.80;;;;;;;9.31;100.00;148481.13;4980419;28;20696;-56
2024/01/03 03:36:28;;;;;;;2.60;0.77;;;;;;;9.40;97.83;148503.53;4982415;28;20230;-56
2024/01/03 03:38:55;;;;;;;3.33;0.70;;;;;;;9.46;97.84;148517.22;4981040;28;20230;-57
2024/01/03 03:41:23;;;;;;;5.50;1.13;;;;;;;9.54;97.40;148537.09;4984850;28;20641;-57
2024/01/03 03:43:49;;;;;;;2.17;0.60;;;;;;;9.52;97.24;148532.19;4981661;28;20229;-55
2024/01/03 03:46:18;;;;;;;1.70;0.53;;;;;;;9.48;96.87;148522.22;4977589;28;20248;-58
2024/01/03 03:48:45;;;;;;;2.33;0.87;;;;;;;9.52;94.50;148532.19;4981185;28;20221;-56
2024/01/03 03:51:11;;;;;;;3.10;0.70;;;;;;;9.49;94.42;148524.69;4981731;28;20593;-57
2024/01/03 03:53:38;;;;;;;1.07;0.50;;;;;;;9.44;96.20;148512.25;4986043;28;20233;-57
2024/01/03 03:56:05;;;;;;;2.90;0.77;;;;;;;9.38;96.27;148497.31;4980241;28;20234;-57
2024/01/03 03:58:32;;;;;;;3.93;1.17;;;;;;;9.26;96.30;148469.94;4984017;28;20235;-56
2024/01/03 04:00:58;;;;;;;4.77;1.00;;;;;;;9.25;96.05;148466.19;4981849;28;20574;-56
2024/01/03 04:03:25;;;;;;;2.60;0.73;;;;;;;9.23;96.62;148461.22;4983666;28;20606;-57
2024/01/03 04:05:53;;;;;;;3.30;0.77;;;;;;;9.30;95.13;148478.63;4980833;28;20217;-57
2024/01/03 04:08:19;;;;;;;3.30;0.80;;;;;;;9.43;94.95;148509.78;4983168;28;20590;-57
2024/01/03 04:10:46;;;;;;;3.43;0.90;;;;;;;9.41;95.09;148504.78;4980263;28;20228;-57
2024/01/03 04:13:12;;;;;;;3.03;0.80;;;;;;;9.36;95.80;148493.56;4984006;28;20627;-56
2024/01/03 04:15:39;;;;;;;1.60;0.70;;;;;;;9.41;94.66;148506.00;4985067;28;20233;-57
2024/01/03 04:18:06;;;;;;;3.27;0.80;;;;;;;9.44;94.25;148512.25;4981070;28;20234;-57
2024/01/03 04:20:32;;;;;;;1.60;0.43;;;;;;;9.56;91.76;148542.09;4984626;28;20244;-59
2024/01/03 04:23:00;;;;;;;4.97;0.80;;;;;;;9.53;93.83;148533.41;4980626;28;20230;-58
2024/01/03 04:25:27;;;;;;;4.53;0.87;;;;;;;9.49;93.26;148523.44;4980420;28;20679;-58
2024/01/03 04:27:53;;;;;;;2.93;1.00;;;;;;;9.50;92.60;148527.19;4979459;28;20244;-58
2024/01/03 04:33:02;;;;;;;5.30;0.73;;;;;;;9.48;92.16;148520.94;5029404;23;20216;-59
2024/01/03 04:35:28;;;;;;;5.13;1.10;;;;;;;9.50;90.50;148525.94;5024531;28;20232;-58
2024/01/03 04:37:56;;;;;;;7.30;0.80;;;;;;;9.45;92.28;148514.75;5020573;28;20227;-58
2024/01/03 04:40:24;;;;;;;6.10;1.00;;;;;;;9.41;92.63;148504.78;5024439;28;20727;-58
2024/01/03 04:42:50;;;;;;;3.00;0.83;;;;;;;9.38;91.86;148497.31;5021174;28;20217;-57
2024/01/03 04:45:17;;;;;;;2.80;0.57;;;;;;;9.27;93.10;148472.44;5023545;28;20692;-58
2024/01/03 04:47:44;;;;;;;3.53;0.70;;;;;;;9.24;94.07;148464.97;5022823;28;20225;-58
2024/01/03 04:50:10;;;;;;;2.20;0.93;;;;;;;9.24;94.49;148464.97;5021485;28;20247;-59
2024/01/03 04:52:37;;;;;;;4.40;0.80;;;;;;;9.16;94.11;148445.06;5023377;28;20252;-59
2024/01/03 04:55:04;;;;;;;4.80;1.07;;;;;;;9.25;94.71;148466.19;5021534;28;20226;-59
2024/01/03 04:57:34;;;;;;;4.67;0.70;;;;;;;9.27;93.92;148471.16;5024136;28;20215;-58
2024/01/03 05:00:00;;;;;;;3.57;0.93;;;;;;;9.27;95.51;148472.44;5021486;28;20220;-58
2024/01/03 05:02:27;;;;;;;6.80;1.77;;;;;;;9.33;94.61;148486.09;5022033;28;20249;-59
2024/01/03 05:04:53;;;;;;;7.63;0.93;;;;;;;9.36;94.67;148493.56;5020344;28;20576;-59
2024/01/03 05:07:20;;;;;;;4.27;0.50;;;;;;;9.43;93.54;148511.00;5023123;28;20243;-59
2024/01/03 05:09:47;;;;;;;6.20;0.90;;;;;;;9.45;94.54;148514.75;5021252;28;20593;-58
2024/01/03 05:12:13;;;;;;;6.03;0.70;;;;;;;9.49;93.50;148523.44;5024142;28;20237;-59
2024/01/03 05:14:41;;;;;;;4.13;1.03;;;;;;;9.51;94.28;148529.69;5023329;28;20239;-59
2024/01/03 05:17:11;;;;;;;4.27;0.67;;;;;;;9.46;93.45;148517.22;5020782;28;20343;-58
2024/01/03 05:19:37;;;;;;;2.17;0.70;;;;;;;9.58;92.15;148547.06;5022438;28;20232;-59
2024/01/03 05:22:04;;;;;;;7.53;1.00;;;;;;;9.54;94.59;148537.09;5020903;28;23017;-59
2024/01/03 05:24:31;;;;;;;4.10;0.83;;;;;;;9.56;96.24;148540.88;5023055;28;20227;-59
2024/01/03 05:26:57;;;;;;;4.10;0.73;;;;;;;9.44;98.05;148512.25;5021477;28;20227;-58
2024/01/03 05:29:24;;;;;;;4.57;0.87;;;;;;;9.47;96.28;148519.72;5023588;28;20234;-59
2024/01/03 05:31:52;;;;;;;19.00;8.60;;;;;;;9.43;98.57;148511.00;5021212;28;20231;-59
2024/01/03 05:34:19;;;;;;;12.93;9.93;;;;;;;9.44;99.30;148513.47;5024306;28;20321;-59
2024/01/03 05:36:45;;;;;;;6.50;3.70;;;;;;;9.39;98.75;148499.81;5021903;28;20228;-59
2024/01/03 05:39:13;;;;;;;6.20;0.80;;;;;;;9.47;98.17;148519.72;5023259;28;20752;-58
2024/01/03 05:41:39;;;;;;;3.40;1.27;;;;;;;9.38;99.72;148498.53;5021001;28;20231;-58
2024/01/03 05:44:06;;;;;;;4.17;1.30;;;;;;;9.36;99.74;148493.56;5019337;28;20230;-59
2024/01/03 05:46:32;;;;;;;4.90;1.70;;;;;;;9.38;100.00;148497.31;5021325;28;20228;-57
2024/01/03 05:49:00;;;;;;;5.13;1.10;;;;;;;9.28;100.00;148474.91;5020860;28;20572;-59
2024/01/03 05:51:27;;;;;;;2.40;0.70;;;;;;;9.32;100.00;148483.59;5023144;28;20231;-58
2024/01/03 05:53:53;;;;;;;5.33;0.90;;;;;;;9.26;100.00;148469.94;5020603;28;20229;-59
2024/01/03 05:56:19;;;;;;;4.93;1.30;;;;;;;9.24;100.00;148463.69;5024054;28;20236;-58
2024/01/03 05:58:46;;;;;;;5.67;1.00;;;;;;;9.25;100.00;148466.19;5019870;28;20230;-58
2024/01/03 06:01:13;;;;;;;2.30;0.80;;;;;;;9.23;100.00;148462.47;5023702;28;20232;-57
2024/01/03 06:03:39;;;;;;;1.97;0.70;;;;;;;9.12;100.00;148435.09;5022479;28;20233;-59
2024/01/03 06:06:07;;;;;;;1.60;0.93;;;;;;;9.07;100.00;148422.66;5021394;28;20346;-59
2024/01/03 06:08:34;;;;;;;4.00;0.97;;;;;;;9.05;100.00;148417.69;5022723;28;20700;-58
2024/01/03 06:11:01;;;;;;;2.13;0.60;;;;;;;9.08;100.00;148426.38;5020224;28;20318;-56
2024/01/03 06:13:29;;;;;;;2.87;0.70;;;;;;;9.15;100.00;148442.56;5022116;28;20242;-59
2024/01/03 06:15:55;;;;;;;2.67;0.50;;;;;;;9.20;99.07;148455.00;5006547;28;20722;-59
2024/01/03 06:18:22;;;;;;;2.50;0.70;;;;;;;9.38;96.01;148497.31;5026683;28;20226;-58
2024/01/03 06:20:48;;;;;;;4.57;0.97;;;;;;;9.41;96.69;148506.00;5024647;28;20251;-58
2024/01/03 06:23:16;;;;;;;2.63;0.70;;;;;;;9.45;94.80;148515.97;5025997;28;20224;-59
2024/01/03 06:25:43;;;;;;;4.43;0.77;;;;;;;9.47;95.45;148519.72;5026421;28;20251;-59
2024/01/03 06:28:10;;;;;;;2.80;0.60;;;;;;;9.49;94.28;148523.44;5024217;28;20233;-59
2024/01/03 06:30:36;;;;;;;3.97;0.77;;;;;;;9.52;94.01;148530.91;5025875;28;20566;-59
2024/01/03 06:33:03;;;;;;;1.93;0.60;;;;;;;9.49;94.16;148524.69;5024134;28;20220;-59
2024/01/03 06:35:30;;;;;;;6.97;0.80;;;;;;;9.50;94.34;148525.94;5024919;28;20224;-59
2024/01/03 06:37:57;;;;;;;4.80;0.70;;;;;;;9.53;92.50;148533.41;5023998;28;20228;-58
2024/01/03 06:40:25;;;;;;;3.87;0.73;;;;;;;9.62;91.45;148554.53;5025421;28;20285;-59
2024/01/03 06:42:51;;;;;;;3.33;0.83;;;;;;;9.65;90.36;148562.00;5023703;28;20623;-58
2024/01/03 06:45:18;;;;;;;2.83;0.60;;;;;;;9.62;91.58;148554.53;5026712;28;20232;-60
2024/01/03 06:47:44;;;;;;;3.80;0.63;;;;;;;9.60;91.07;148550.81;5023026;28;20229;-59
2024/01/03 06:50:13;;;;;;;2.33;0.60;;;;;;;9.60;91.44;148552.03;5026808;28;20848;-59
2024/01/03 06:52:39;;;;;;;4.83;0.80;;;;;;;9.67;90.49;148568.25;5007275;28;20240;-58
2024/01/03 06:55:07;;;;;;;7.50;2.60;;;;;;;9.64;91.31;148560.78;5022805;28;20224;-59
2024/01/03 06:57:35;;;;;;;5.30;2.67;;;;;;;9.71;90.11;148576.94;5026283;28;20268;-59
2024/01/03 07:00:02;;;;;;;6.20;1.07;;;;;;;9.67;90.46;148566.97;5022304;28;20228;-59
2024/01/03 07:02:29;;;;;;;6.55;3.60;;;;;;;9.63;91.91;148557.03;5023750;28;20434;-56
2024/01/03 07:04:55;;;;;;;2.97;1.33;;;;;;;9.70;89.71;148575.72;5022611;28;20593;-58
2024/01/03 07:07:22;;;;;;;10.00;1.10;;;;;;;9.77;89.27;148591.88;5024984;28;20227;-58
2024/01/03 07:09:48;;;;;;;4.73;0.97;;;;;;;9.80;89.14;148599.34;5022293;28;20717;-58
2024/01/03 07:12:15;;;;;;;3.67;0.67;;;;;;;9.79;89.40;148595.63;5025001;28;20217;-58
2024/01/03 07:14:43;;;;;;;3.27;0.70;;;;;;;9.86;87.41;148614.28;5024839;28;20237;-58
2024/01/03 07:17:11;;;;;;;5.10;1.10;;;;;;;9.89;86.83;148620.53;5022390;28;20234;-58
2024/01/03 07:19:38;;;;;;;3.60;1.13;;;;;;;9.94;86.18;148632.97;5023135;28;20236;-58
2024/01/03 07:22:05;;;;;;;2.00;0.40;;;;;;;9.95;86.61;148634.22;5022082;28;20624;-58
2024/01/03 07:24:31;;;;;;;4.63;1.20;;;;;;;9.95;85.80;148634.22;5024656;28;20224;-58
2024/01/03 07:26:58;;;;;;;1.87;0.53;;;;;;;10.02;85.54;148651.63;5020519;28;20256;-58
2024/01/03 07:29:24;;;;;;;3.37;0.60;;;;;;;10.01;84.54;148649.16;5024894;28;20229;-58
2024/01/03 07:31:52;;;;;;;2.67;0.57;;;;;;;10.00;86.36;148646.66;5020273;28;20607;-58
2024/01/03 07:34:19;;;;;;;3.63;0.50;;;;;;;9.98;86.23;148642.94;5024380;28;20847;-58
2024/01/03 07:36:45;;;;;;;5.37;1.03;;;;;;;10.01;85.10;148649.16;5021551;28;20227;-57
2024/01/03 07:39:12;;;;;;;5.50;1.97;;;;;;;10.08;85.28;148665.31;5026084;28;20232;-57
2024/01/03 07:41:39;;;;;;;4.93;0.90;;;;;;;10.03;85.75;148655.41;5023671;28;20237;-58
2024/01/03 07:44:05;;;;;;;2.87;0.87;;;;;;;10.07;84.76;148664.09;5005166;28;20240;-57
2024/01/03 07:46:32;;;;;;;3.93;1.20;;;;;;;10.06;85.75;148661.59;5024812;28;20932;-58
2024/01/03 07:49:00;;;;;;;5.03;0.80;;;;;;;10.08;85.58;148666.59;5020812;28;20225;-58
2024/01/03 07:51:26;;;;;;;3.43;0.83;;;;;;;10.13;84.96;148679.03;5024218;28;20243;-56
2024/01/03 07:53:53;;;;;;;6.07;1.07;;;;;;;10.14;84.32;148681.53;5022548;28;20224;-58
2024/01/03 07:56:19;;;;;;;4.00;1.73;;;;;;;10.27;82.14;148712.63;5025821;28;20229;-58
2024/01/03 07:58:46;;;;;;;3.90;1.20;;;;;;;10.27;83.50;148712.63;5022363;28;20729;-58
2024/01/03 08:01:13;;;;;;;7.10;0.87;;;;;;;10.20;84.61;148695.19;5025666;28;20248;-58
2024/01/03 08:03:40;;;;;;;4.50;0.93;;;;;;;10.25;84.66;148707.66;5024962;28;20240;-55
2024/01/03 08:06:08;;;;;;;4.37;1.20;;;;;;;10.19;86.71;148692.69;5023188;28;20235;-57
2024/01/03 08:08:35;;;;;;;4.27;0.80;;;;;;;10.13;87.13;148677.75;5023981;28;20586;-57
2024/01/03 08:11:02;;;;;;;4.17;0.80;;;;;;;10.08;89.05;148665.31;5021982;28;20229;-58
2024/01/03 08:13:29;;;;;;;5.80;0.80;;;;;;;9.99;92.27;148644.16;5022613;28;20236;-58
2024/01/03 08:15:55;;;;;;;5.00;0.80;;;;;;;9.87;93.36;148616.78;5022361;28;20221;-58
2024/01/03 08:18:22;;;;;;;2.80;0.40;;;;;;;9.89;90.28;148620.53;5024560;28;20236;-58
2024/01/03 08:20:49;;;;;;;2.30;0.73;;;;;;;9.87;91.89;148616.78;5020946;28;20221;-58
2024/01/03 08:23:17;;;;;;;4.67;0.70;;;;;;;9.89;91.62;148621.75;5023881;28;20248;-58
2024/01/03 08:25:43;;;;;;;3.50;0.90;;;;;;;9.87;92.67;148616.78;5024033;28;20225;-57
2024/01/03 08:28:11;;;;;;;3.83;2.30;;;;;;;9.90;91.91;148624.25;5021117;28;20340;-59
2024/01/03 08:30:37;;;;;;;4.77;0.83;;;;;;;9.94;90.11;148632.97;5023219;28;20332;-58
2024/01/03 08:33:05;;;;;;;4.73;1.40;;;;;;;9.95;90.91;148635.47;5020683;28;20579;-58
2024/01/03 08:35:31;;;;;;;5.33;0.93;;;;;;;9.92;90.23;148628.00;5023286;28;20232;-57
2024/01/03 08:37:58;;;;;;;6.87;2.60;;;;;;;9.96;89.13;148637.97;5020886;28;20224;-56
2024/01/03 08:40:26;;;;;;;4.77;1.10;;;;;;;9.99;90.21;148645.44;5023824;28;20228;-57
2024/01/03 08:42:55;;;;;;;3.57;0.90;;;;;;;10.01;89.48;148650.41;4998654;28;20244;-58
2024/01/03 08:45:22;;;;;;;4.57;1.03;;;;;;;10.03;89.12;148655.41;5024021;28;20232;-58
2024/01/03 08:47:49;;;;;;;4.77;1.67;;;;;;;10.02;89.75;148651.63;5020716;28;20593;-58
2024/01/03 08:50:15;;;;;;;4.83;0.60;;;;;;;10.01;87.84;148649.16;5024470;28;20227;-58
2024/01/03 08:52:43;;;;;;;10.37;1.57;;;;;;;10.11;88.74;148674.03;5022861;28;20243;-57
2024/01/03 08:55:10;;;;;;;4.33;1.40;;;;;;;10.05;88.86;148659.09;5021210;28;20233;-58
2024/01/03 08:57:38;;;;;;;3.47;1.60;;;;;;;10.08;87.60;148666.59;5022669;28;20241;-58
2024/01/03 09:00:06;;;;;;;4.50;0.93;;;;;;;10.08;86.62;148665.31;5021450;28;20254;-58
2024/01/03 09:02:33;;;;;;;4.73;1.97;;;;;;;10.08;88.38;148665.31;5022847;28;20236;-57
2024/01/03 09:05:00;;;;;;;4.60;3.00;;;;;;;10.05;88.09;148659.09;5003758;28;20227;-58
2024/01/03 09:07:26;;;;;;;1.67;0.40;;;;;;;10.02;88.42;148651.63;5005702;28;20334;-57
2024/01/03 09:09:53;;;;;;;2.43;0.40;;;;;;;9.99;88.20;148645.44;5021504;28;20239;-57
2024/01/03 09:12:21;;;;;;;6.67;3.17;;;;;;;10.00;88.32;148647.94;5023820;28;20229;-58
2024/01/03 09:14:49;;;;;;;1.47;0.47;;;;;;;10.07;87.62;148664.09;5020142;28;20238;-58
2024/01/03 09:17:16;;;;;;;2.93;0.60;;;;;;;10.09;86.31;148669.06;5024320;28;20229;-59
2024/01/03 09:19:42;;;;;;;1.97;0.77;;;;;;;10.01;89.04;148650.41;5024189;28;20577;-58
2024/01/03 09:22:11;;;;;;;4.07;0.60;;;;;;;9.92;90.21;148628.00;5021820;28;20348;-58
2024/01/03 09:24:38;;;;;;;2.33;0.60;;;;;;;9.94;90.13;148632.97;5023116;28;20266;-55
2024/01/03 09:27:05;;;;;;;2.90;1.07;;;;;;;9.91;91.30;148625.50;5020235;28;22340;-56
2024/01/03 09:29:32;;;;;;;5.10;1.23;;;;;;;9.83;92.05;148606.81;5022190;28;20236;-57
2024/01/03 09:32:00;;;;;;;4.73;0.70;;;;;;;9.77;92.70;148590.66;5018779;28;20593;-58
2024/01/03 09:34:26;;;;;;;2.70;0.80;;;;;;;9.70;93.29;148575.72;5022320;28;20233;-59
2024/01/03 09:36:54;;;;;;;3.80;0.83;;;;;;;9.56;96.31;148542.09;5020756;28;20227;-58
2024/01/03 09:39:20;;;;;;;2.53;0.40;;;;;;;9.57;97.13;148544.56;5023405;28;20224;-56
2024/01/03 09:41:48;;;;;;;4.30;1.50;;;;;;;9.51;98.99;148528.41;5020082;28;20732;-55
2024/01/03 09:44:15;;;;;;;26.83;12.17;;;;;;;9.51;99.37;148528.41;5022760;28;20237;-58
2024/01/03 09:46:43;;;;;;;6.73;0.80;;;;;;;9.41;100.00;148504.78;5021583;28;20228;-57
2024/01/03 09:49:11;;;;;;;6.33;2.30;;;;;;;9.34;100.00;148488.59;5018391;28;20228;-56
2024/01/03 09:51:38;;;;;;;4.37;1.40;;;;;;;9.26;100.00;148468.66;5025834;28;20232;-56
2024/01/03 09:54:08;;;;;;;3.13;0.73;;;;;;;9.25;100.00;148466.19;5021620;28;20264;-57
2024/01/03 09:56:37;;;;;;;10.47;2.53;;;;;;;9.25;100.00;148467.47;5025400;28;20260;-57
2024/01/03 09:59:03;;;;;;;10.13;4.43;;;;;;;9.23;100.00;148462.47;5024200;28;20223;-57
2024/01/03 10:01:30;;;;;;;5.23;1.37;;;;;;;9.34;100.00;148488.59;5025243;28;20232;-57
2024/01/03 10:03:56;;;;;;;4.30;1.47;;;;;;;9.26;100.00;148469.94;5023332;28;20688;-57
2024/01/03 10:06:24;;;;;;;6.43;3.60;;;;;;;9.26;100.00;148469.94;5026183;28;20271;-58
2024/01/03 10:08:58;;;;;;;5.57;1.30;;;;;;;9.38;100.00;148498.53;5022981;28;20239;-56
2024/01/03 10:11:24;;;;;;;4.73;1.20;;;;;;;9.44;100.00;148512.25;5025090;28;20302;-56
2024/01/03 10:13:54;;;;;;;3.63;1.00;;;;;;;9.44;100.00;148513.47;5019590;28;20224;-57
2024/01/03 10:16:25;;;;;;;7.17;3.10;;;;;;;9.42;100.00;148508.50;5026393;28;20314;-57
2024/01/03 10:19:19;;;;;;;2.30;0.70;;;;;;;9.45;98.90;148515.97;5022801;28;20224;-56
2024/01/03 10:21:49;;;;;;;6.13;2.30;;;;;;;9.53;97.84;148534.66;4999071;28;20225;-56
2024/01/03 10:24:16;;;;;;;3.57;1.37;;;;;;;9.62;97.10;148555.81;5026345;28;20232;-56
2024/01/03 10:26:43;;;;;;;5.77;3.17;;;;;;;9.63;97.92;148558.28;5026460;28;20233;-56
2024/01/03 10:29:10;;;;;;;3.07;1.83;;;;;;;9.73;95.42;148581.91;5022964;28;20236;-56
2024/01/03 10:31:36;;;;;;;4.27;1.40;;;;;;;9.73;95.94;148583.19;5026579;28;20771;-56
2024/01/03 10:34:04;;;;;;;2.63;0.80;;;;;;;9.69;96.41;148571.97;5013328;28;20223;-56
2024/01/03 10:36:33;;;;;;;2.23;1.10;;;;;;;9.71;95.81;148578.22;5026870;28;20283;-56
2024/01/03 10:39:02;;;;;;;3.47;0.70;;;;;;;9.77;93.79;148590.66;5024189;28;20278;-55
2024/01/03 10:41:30;;;;;;;2.17;0.57;;;;;;;9.74;95.06;148585.66;5026332;28;20231;-55
2024/01/03 10:43:59;;;;;;;4.30;0.50;;;;;;;9.61;98.63;148553.31;5022818;28;20231;-56
2024/01/03 10:46:27;;;;;;;2.67;0.77;;;;;;;9.59;100.00;148549.56;5025213;28;20287;-55
2024/01/03 10:48:53;;;;;;;0.63;0.43;;;;;;;9.55;100.00;148539.59;4996321;28;20348;-55
2024/01/03 10:51:23;;;;;;;2.27;0.50;;;;;;;9.65;100.00;148563.25;5020542;28;20232;-56
2024/01/03 10:53:52;;;;;;;4.30;0.60;;;;;;;9.76;99.50;148589.38;5021807;28;20228;-57
2024/01/03 10:56:21;;;;;;;1.90;0.67;;;;;;;9.74;100.00;148585.66;5026574;28;20228;-56
2024/01/03 10:58:49;;;;;;;2.03;0.50;;;;;;;9.75;99.26;148586.91;5021016;28;20221;-55
2024/01/03 11:01:20;;;;;;;3.67;0.90;;;;;;;9.83;100.00;148605.59;5025701;28;20717;-57
2024/01/03 11:03:58;;;;;;;2.57;0.70;;;;;;;10.02;98.37;148651.63;5023124;28;20288;-55
2024/01/03 11:06:31;;;;;;;2.60;0.70;;;;;;;10.05;95.86;148659.09;5025757;28;20224;-56
2024/01/03 11:08:59;;;;;;;4.30;1.03;;;;;;;10.17;96.60;148689.00;5021556;28;20581;-56
2024/01/03 11:11:31;;;;;;;4.17;1.43;;;;;;;9.92;97.16;148628.00;5023082;28;20236;-52
2024/01/03 11:13:58;;;;;;;7.43;1.00;;;;;;;10.12;96.09;148675.28;5022123;28;20222;-57
2024/01/03 11:16:39;;;;;;;3.40;0.70;;;;;;;10.18;97.02;148690.22;5026305;28;20220;-57
2024/01/03 11:19:07;;;;;;;2.90;1.30;;;;;;;10.25;95.01;148706.44;5023439;28;20378;-55
2024/01/03 11:21:45;;;;;;;4.30;1.00;;;;;;;10.45;91.16;148756.28;5024571;28;20578;-55
2024/01/03 11:24:52;;;;;;;3.40;0.80;;;;;;;10.33;90.72;148726.34;5015042;28;20298;-56
2024/01/03 11:27:23;;;;;;;5.10;0.90;;;;;;;10.27;93.19;148711.41;5022912;28;20671;-54
2024/01/03 11:29:51;;;;;;;7.67;1.00;;;;;;;10.27;92.55;148712.63;5000402;28;20222;-57
2024/01/03 11:32:27;;;;;;;4.93;0.90;;;;;;;10.38;89.62;148737.53;5025408;28;20232;-56
2024/01/03 11:34:54;;;;;;;7.17;1.20;;;;;;;10.41;89.35;148746.31;5022188;28;20230;-56